createdAt,value
2023-03-12T00:00:10.064Z,5.5
2023-03-12T00:10:09.959Z,7
2023-03-12T00:20:10.087Z,7
2023-03-12T00:30:10.155Z,5
2023-03-12T00:40:10.081Z,7
2023-03-12T00:50:10.125Z,6
2023-03-12T01:00:10.043Z,5.5
2023-03-12T01:10:00.225Z,7
2023-03-12T01:20:00.320Z,7.5
2023-03-12T01:30:00.370Z,8
2023-03-12T01:40:00.258Z,7
2023-03-12T01:50:00.341Z,8
2023-03-12T02:00:00.273Z,8
2023-03-12T02:10:00.368Z,8
2023-03-12T02:20:00.276Z,8
2023-03-12T02:30:00.383Z,8
2023-03-12T02:40:00.288Z,8
2023-03-12T02:50:00.357Z,8
2023-03-12T03:00:00.278Z,8
2023-03-12T03:10:00.334Z,7.5
2023-03-12T03:20:00.475Z,8
2023-03-12T03:30:00.390Z,8.5
2023-03-12T03:40:00.477Z,8
2023-03-12T03:50:00.350Z,8
2023-03-12T04:00:03.451Z,8.5
2023-03-12T04:10:00.345Z,8
2023-03-12T04:20:00.496Z,9
2023-03-12T04:30:00.352Z,8.5
2023-03-12T04:40:00.467Z,9
2023-03-12T04:50:00.553Z,8.5
2023-03-12T05:00:00.479Z,8.5
2023-03-12T05:10:00.558Z,8.5
2023-03-12T05:20:00.485Z,9
2023-03-12T05:30:00.551Z,8.5
2023-03-12T05:40:00.444Z,8.5
2023-03-12T05:50:00.538Z,8.5
2023-03-12T06:00:00.499Z,8.5
2023-03-12T06:10:00.579Z,8.5
2023-03-12T06:20:00.684Z,9
2023-03-12T06:30:00.530Z,8.5
2023-03-12T06:40:00.657Z,8.5
2023-03-12T06:50:00.530Z,8.5
2023-03-12T07:00:00.683Z,9
2023-03-12T07:10:00.548Z,9.5
2023-03-12T07:20:00.642Z,9.5
2023-03-12T07:30:00.522Z,10
2023-03-12T07:40:00.689Z,11
2023-03-12T07:50:00.797Z,11.5
2023-03-12T08:00:00.706Z,12
2023-03-12T08:10:00.734Z,12
2023-03-12T08:20:00.614Z,13
2023-03-12T08:30:00.714Z,12.5
2023-03-12T08:40:00.637Z,13
2023-03-12T08:50:00.720Z,14
2023-03-12T09:00:00.815Z,14.5
2023-03-12T09:10:00.686Z,14.5
2023-03-12T09:20:00.833Z,15
2023-03-12T09:30:01.352Z,15
2023-03-12T09:40:00.837Z,17
2023-03-12T09:50:00.689Z,18
2023-03-12T10:00:00.809Z,16.5
2023-03-12T10:10:01.043Z,14.5
2023-03-12T10:20:01.311Z,14.5
2023-03-12T10:30:00.742Z,14.5
2023-03-12T10:40:00.829Z,14
2023-03-12T10:50:00.712Z,14.5
2023-03-12T11:00:00.835Z,15
2023-03-12T11:10:00.906Z,15
2023-03-12T11:20:00.846Z,15
2023-03-12T11:30:00.933Z,15.5
2023-03-12T11:40:00.852Z,15.5
2023-03-12T11:50:00.917Z,15.5
2023-03-12T12:00:00.856Z,14.5
2023-03-12T12:10:00.924Z,14.5
2023-03-12T12:20:00.845Z,15
2023-03-12T12:30:00.920Z,15
2023-03-12T12:40:00.842Z,15.5
2023-03-12T12:50:00.907Z,15.5
2023-03-12T13:00:01.032Z,15.5
2023-03-12T13:10:00.913Z,14.5
2023-03-12T13:20:01.921Z,14.5
2023-03-12T13:30:00.902Z,15
2023-03-12T13:40:01.046Z,15.5
2023-03-12T13:50:00.906Z,15.5
2023-03-12T14:00:01.020Z,14.5
2023-03-12T14:10:00.886Z,14.5
2023-03-12T14:20:01.017Z,14.5
2023-03-12T14:30:01.102Z,13.5
2023-03-12T14:40:01.027Z,14
2023-03-12T14:50:01.092Z,14.5
2023-03-12T15:00:01.003Z,14.5
2023-03-12T15:10:01.085Z,14.5
2023-03-12T15:20:01.015Z,14.5
2023-03-12T15:30:01.082Z,14.5
2023-03-12T15:40:01.027Z,14.5
2023-03-12T15:50:01.072Z,14.5
2023-03-12T16:00:01.201Z,13.5
2023-03-12T16:10:01.090Z,13.5
2023-03-12T16:20:01.211Z,13.5
2023-03-12T16:30:01.069Z,13.5
2023-03-12T16:40:01.192Z,13.5
2023-03-12T16:50:01.050Z,13.5
2023-03-12T17:00:01.246Z,13.5
2023-03-12T17:10:01.280Z,13.5
2023-03-12T17:20:01.169Z,13
2023-03-12T17:30:01.484Z,13
2023-03-12T17:40:01.179Z,12.5
2023-03-12T17:50:01.243Z,13
2023-03-12T18:00:01.177Z,13
2023-03-12T18:10:01.255Z,13
2023-03-12T18:20:01.368Z,13
2023-03-12T18:30:01.229Z,12.5
2023-03-12T18:40:01.437Z,12.5
2023-03-12T18:50:01.558Z,12.5
2023-03-12T19:00:01.430Z,11.5
2023-03-12T19:10:01.292Z,12
2023-03-12T19:20:01.433Z,12
2023-03-12T19:30:01.283Z,11.5
2023-03-12T19:40:01.405Z,11.5
2023-03-12T19:50:01.291Z,10.5
2023-03-12T20:00:01.422Z,10.5
2023-03-12T20:10:01.262Z,10.5
2023-03-12T20:20:01.394Z,10.5
2023-03-12T20:30:01.482Z,10
2023-03-12T20:40:01.364Z,10
2023-03-12T20:50:01.351Z,9
2023-03-12T21:00:01.493Z,10
2023-03-12T21:10:01.436Z,10
2023-03-12T21:20:01.357Z,10
2023-03-12T21:30:01.419Z,10
2023-03-12T21:40:01.549Z,10
2023-03-12T21:50:01.421Z,10
2023-03-12T22:00:01.540Z,9.5
2023-03-12T22:10:01.407Z,9.5
2023-03-12T22:20:01.546Z,9.5
2023-03-12T22:30:01.412Z,9.5
2023-03-12T22:40:01.649Z,9.5
2023-03-12T22:50:01.405Z,10
2023-03-12T23:00:01.529Z,9.5
2023-03-12T23:10:01.600Z,10
2023-03-12T23:20:01.543Z,10
2023-03-12T23:30:01.624Z,11
2023-03-12T23:40:01.559Z,9.5
2023-03-12T23:50:01.624Z,10
